• Join FlightAware (Why Join?)
  • Login
  • US Flag 
03:42AM EDT


 

Airport Tracker/Info


-or-


 

Live Flight TrackerFlight Track Log ✈ SWA896 ✈ 18-Apr-2013 ✈ KBUF - KLAS

Flight Track Log - Related Links

Times and Time Zones

All times are in EDT time to prevent confusion due to time zone crossing. See the SWA896 flight status page for this flight to view local times or setup timezone preferences in your user account.

Time Position Orientation Groundspeed Altitude Reporting Facility
EDT Latitude Longitude Course Direction KTS MPH feet Rate Location/Type
08:14AM 42.9667 -78.7000 202° Southwest 189 217 1,700  Level Buffalo TRACON
08:15AM 42.9833 -78.6833 36° Northeast 199 229 2,200 1,500 Climbing Buffalo TRACON
08:16AM 43.0097 -78.5844 70° East 277 319 4,300 1,860 Climbing Cleveland Center
08:17AM 42.9558 -78.5889 183° South 130 150 6,600 2,160 Climbing Cleveland Center
08:19AM 42.8322 -78.6778 208° Southwest 197 227 10,900 2,220 Climbing Cleveland Center
08:20AM 42.3203 -79.0430 202° Southwest  Level FlightAware Approximate
08:20AM 42.7600 -78.7308 208° Southwest 258 297 13,400  Level Cleveland Center
08:21AM 42.6817 -78.7842 207° Southwest 290 334 15,800 1,500 Climbing Cleveland Center
08:22AM 42.5972 -78.8431 207° Southwest 320 368 16,400 1,200 Climbing Cleveland Center
08:23AM 42.5022 -78.9075 207° Southwest 359 413 18,300 1,800 Climbing Cleveland Center
08:24AM 42.4094 -78.9831 211° Southwest 380 437 20,100 1,800 Climbing Cleveland Center
08:25AM 42.3928 -79.1269 261° West 358 412 21,900 1,680 Climbing Cleveland Center
08:26AM 42.3925 -79.2786 270° West 362 417 23,500 1,500 Climbing Cleveland Center
08:27AM 42.3878 -79.4361 268° West 395 455 24,900 1,320 Climbing Cleveland Center
08:28AM 42.3872 -79.5936 270° West 411 473 26,200 1,200 Climbing Cleveland Center
08:29AM 42.3822 -79.7511 268° West 424 488 27,300 1,200 Climbing Cleveland Center
08:30AM 42.3769 -79.9114 268° West 424 488 28,600 1,380 Climbing Cleveland Center
08:31AM 42.3736 -80.0914 269° West 429 494 30,100 1,380 Climbing Cleveland Center
08:32AM 42.3681 -80.2489 267° West 429 494 31,400 1,140 Climbing Cleveland Center
08:33AM 42.3642 -80.4089 268° West 429 494 32,400 900 Climbing Cleveland Center
08:34AM 42.3603 -80.5719 268° West 424 488 33,300 780 Climbing Cleveland Center
08:35AM 42.3539 -80.7097 266° West 429 494 34,000 300 Climbing Cleveland Center
08:36AM 42.3494 -80.8697 268° West 424 488 34,000  Level Cleveland Center
08:37AM 42.3447 -81.0297 268° West 424 488 34,000  Level Cleveland Center
08:38AM 42.3378 -81.1928 267° West 424 488 34,000  Level Cleveland Center
08:39AM 42.3325 -81.3472 267° West 429 494 34,000  Level Cleveland Center
08:40AM 42.3272 -81.5072 267° West 424 488 34,000  Level Cleveland Center
08:41AM 42.3217 -81.6672 267° West 424 488 34,000 -600 Level Cleveland Center
08:42AM 42.3139 -81.8269 266° West 424 488 32,900 -1,440 Descending Cleveland Center
08:43AM 42.3078 -81.9925 267° West 437 503 31,200 -1,500 Descending Cleveland Center
08:44AM 42.2992 -82.1664 266° West 433 498 30,000 -600 Descending Cleveland Center
08:45AM 42.2906 -82.3289 266° West 433 498 30,000  Level Cleveland Center
08:46AM 42.2839 -82.4917 267° West 438 504 30,000  Level Cleveland Center
08:47AM 42.2747 -82.6597 266° West 443 510 30,000  Level Cleveland Center
08:48AM 42.2672 -82.8278 267° West 443 510 30,000  Level Cleveland Center
08:49AM 42.2578 -82.9903 266° West 443 510 30,000  Level Cleveland Center
08:50AM 42.2500 -83.1556 266° West 443 510 30,000  Level Cleveland Center
08:51AM 42.2400 -83.3233 265° West 448 516 30,000 -360 Level Cleveland Center
08:52AM 42.2339 -83.4831 267° West 436 502 29,300 -780 Descending Cleveland Center
08:53AM 42.2217 -83.6367 264° West 441 507 28,500 -660 Descending Cleveland Center
08:54AM 42.2131 -83.7989 266° West 446 513 28,000 -300 Descending Cleveland Center
08:55AM 42.2042 -83.9583 266° West 441 507 28,000  Level Cleveland Center
08:56AM 42.1950 -84.1231 266° West 441 507 28,000  Level Cleveland Center
08:57AM 42.2025 -84.2861 274° West 441 507 28,000  Level Cleveland Center
08:58AM 42.2306 -84.4478 283° West 441 507 28,000  Level Cleveland Center
09:00AM 42.2819 -84.7142 285° West 440 506 28,000  Level Chicago Center
09:01AM 42.3122 -84.8739 284° West 440 506 28,000  Level Chicago Center
09:02AM 42.3442 -85.0331 285° West 440 506 28,000 600 Level Chicago Center
09:03AM 42.3792 -85.1914 287° West 441 507 29,300 1,320 Climbing Chicago Center
09:04AM 42.4164 -85.3461 288° West 435 501 30,800 1,380 Climbing Chicago Center
09:05AM 42.4592 -85.4981 291° West 434 499 32,200 1,320 Climbing Chicago Center
09:06AM 42.4894 -85.6444 286° West 408 470 33,600 840 Climbing Chicago Center
09:07AM 42.4481 -85.7811 248° West 395 455 34,000 180 Climbing Chicago Center
09:08AM 42.3969 -85.9117 242° Southwest 393 452 34,000  Level Chicago Center
09:09AM 42.3467 -86.0417 242° Southwest 391 450 34,000  Level Chicago Center
09:10AM 42.2889 -86.1803 241° Southwest 393 452 34,000  Level Chicago Center
09:11AM 42.2369 -86.3072 241° Southwest 390 449 34,000  Level Chicago Center
09:12AM 42.1844 -86.4333 241° Southwest 389 448 34,000  Level Chicago Center
09:13AM 42.1331 -86.5597 241° Southwest 386 444 34,000  Level Chicago Center
09:14AM 42.0803 -86.6903 241° Southwest 383 441 34,000  Level Chicago Center
09:15AM 42.0394 -86.8203 247° West 380 437 34,000  Level Chicago Center
09:16AM 42.0081 -86.9581 253° West 387 445 34,000  Level Chicago Center
09:17AM 41.9914 -87.0986 261° West 393 452 34,000  Level Chicago Center
09:18AM 41.9817 -87.2700 266° West 389 448 34,000  Level Chicago Center
09:19AM 41.9689 -87.4108 263° West 385 443 34,000  Level Chicago Center
09:20AM 41.9544 -87.5489 262° West 379 436 34,000  Level Chicago Center
09:21AM 41.9436 -87.6897 264° West 382 440 34,000  Level Chicago Center
09:22AM 41.9297 -87.8292 262° West 382 440 34,000  Level Chicago Center
09:23AM 41.9167 -87.9683 263° West 380 437 34,000  Level Chicago Center
09:24AM 41.9031 -88.1094 263° West 385 443 34,000  Level Chicago Center
09:25AM 41.8861 -88.2761 262° West 382 440 34,000  Level Chicago Center
09:26AM 41.8722 -88.4144 262° West 379 436 34,000  Level Chicago Center
09:27AM 41.8583 -88.5525 262° West 376 433 34,000  Level Chicago Center
09:28AM 41.8436 -88.6919 262° West 380 437 34,000  Level Chicago Center
09:29AM 41.8289 -88.8347 262° West 387 445 34,000  Level Chicago Center
09:30AM 41.8136 -88.9772 262° West 389 448 34,000  Level Chicago Center
09:31AM 41.7986 -89.1189 262° West 388 447 34,000  Level Chicago Center
09:32AM 41.7842 -89.2628 262° West 392 451 34,000  Level Chicago Center
09:33AM 41.7661 -89.4342 262° West 390 449 34,000  Level Chicago Center
09:34AM 41.7519 -89.5608 262° West 391 450 34,000  Level Chicago Center
09:35AM 41.7356 -89.7036 261° West 390 449 34,000  Level Chicago Center
09:36AM 41.7197 -89.8475 262° West 392 451 34,000  Level Chicago Center
09:37AM 41.7042 -89.9919 262° West 394 453 34,000  Level Chicago Center
09:38AM 41.6831 -90.1667 261° West 398 458 34,000  Level Chicago Center
09:39AM 41.6661 -90.3158 261° West 408 470 34,000  Level Chicago Center
09:40AM 41.6478 -90.4622 261° West 404 465 34,000  Level Chicago Center
09:41AM 41.6306 -90.6072 261° West 398 458 34,000  Level Chicago Center
09:42AM 41.6133 -90.7483 261° West 400 460 34,000  Level Chicago Center
09:43AM 41.5958 -90.8911 261° West 395 455 34,000  Level Chicago Center
09:44AM 41.5786 -91.0339 261° West 391 450 34,000  Level Chicago Center
09:45AM 41.5611 -91.1767 261° West 391 450 34,000  Level Chicago Center
09:46AM 41.5397 -91.3475 261° West 391 450 34,000  Level Chicago Center
09:47AM 41.5211 -91.4881 260° West 388 447 34,000 180 Level Chicago Center
09:48AM 41.5031 -91.6300 260° West 390 449 34,400 540 Climbing Chicago Center
09:49AM 41.4839 -91.7725 260° West 391 450 35,100 660 Climbing Chicago Center
09:50AM 41.4644 -91.9178 260° West 397 457 35,800 420 Climbing Chicago Center
09:51AM 41.4453 -92.0647 260° West 402 463 36,000 60 Climbing Chicago Center
09:52AM 41.4264 -92.2097 260° West 400 460 36,000  Level Chicago Center
09:54AM 41.4058 -92.3519 259° West 395 455 36,000  Level Chicago Center
09:55AM 41.3856 -92.5031 260° West 400 460 36,000  Level Chicago Center
09:56AM 41.3617 -92.6764 260° West 400 460 36,000  Level Chicago Center
09:56AM 41.3492 -92.7661 260° West 402 463 36,000  Level Minneapolis Center
09:57AM 41.3292 -92.9122 260° West 405 466 36,000  Level Minneapolis Center
09:58AM 41.3075 -93.0556 259° West 403 464 36,000  Level Minneapolis Center
09:59AM 41.2875 -93.1981 259° West 399 459 36,000  Level Minneapolis Center
10:00AM 41.2661 -93.3419 259° West 399 459 36,000  Level Minneapolis Center
10:01AM 41.2450 -93.4861 259° West 400 460 36,000  Level Minneapolis Center
10:03AM 41.2211 -93.6522 259° West 392 451 36,000  Level Minneapolis Center
10:04AM 41.1942 -93.8272 258° West 400 460 36,000  Level Minneapolis Center
10:05AM 41.1714 -93.9706 258° West 403 464 36,000  Level Minneapolis Center
10:06AM 41.1497 -94.1106 258° West 400 460 36,000  Level Minneapolis Center
10:07AM 41.1303 -94.2503 260° West 393 452 36,000  Level Minneapolis Center
10:08AM 41.1111 -94.3850 259° West 385 443 36,000  Level Minneapolis Center
10:09AM 41.0850 -94.5542 258° West 393 452 36,000  Level Minneapolis Center
10:10AM 41.0600 -94.7008 257° West 396 456 36,000  Level Minneapolis Center
10:11AM 41.0381 -94.8422 258° West 394 453 36,000  Level Minneapolis Center
10:12AM 41.0150 -94.9861 258° West 398 458 36,000  Level Minneapolis Center
10:13AM 40.9908 -95.1314 258° West 402 463 36,000  Level Minneapolis Center
10:14AM 40.9672 -95.2747 258° West 400 460 36,000  Level Minneapolis Center
10:15AM 40.9436 -95.4189 258° West 400 460 36,000  Level Minneapolis Center
10:16AM 40.9192 -95.5650 258° West 404 465 36,000  Level Minneapolis Center
10:17AM 40.8947 -95.7119 258° West 405 466 36,000  Level Minneapolis Center
10:18AM 40.8700 -95.8603 258° West 410 472 36,000  Level Minneapolis Center
10:19AM 40.8397 -96.0389 257° West 412 474 36,000  Level Minneapolis Center
10:20AM 40.8139 -96.1864 257° West 411 473 36,000  Level Minneapolis Center
10:21AM 40.7883 -96.3328 257° West 410 472 36,000  Level Minneapolis Center
10:22AM 40.7633 -96.4833 258° West 415 478 36,000  Level Minneapolis Center
10:23AM 40.7367 -96.6297 257° West 412 474 36,000  Level Minneapolis Center
10:24AM 40.7108 -96.7758 257° West 409 471 36,000  Level Minneapolis Center
10:25AM 40.6853 -96.9225 257° West 410 472 36,000  Level Minneapolis Center
10:26AM 40.6592 -97.0678 257° West 410 472 36,000  Level Minneapolis Center
10:27AM 40.6328 -97.2144 257° West 410 472 36,000  Level Minneapolis Center
10:28AM 40.6031 -97.3753 256° West 414 476 36,000  Level Minneapolis Center
10:29AM 40.5764 -97.5231 257° West 415 478 36,000  Level Minneapolis Center
10:30AM 40.5478 -97.6708 256° West 416 479 36,000  Level Minneapolis Center
10:31AM 40.5206 -97.8178 256° West 414 476 36,000  Level Minneapolis Center
10:32AM 40.4928 -97.9639 256° West 413 475 36,000  Level Minneapolis Center
10:33AM 40.4597 -98.1381 256° West 410 472 36,000  Level Minneapolis Center
10:34AM 40.4317 -98.2833 256° West 410 472 36,000  Level Minneapolis Center
10:35AM 40.4036 -98.4294 256° West 410 472 36,000  Level Minneapolis Center
10:36AM 40.3750 -98.5761 256° West 413 475 36,000  Level Minneapolis Center
10:37AM 40.3469 -98.7244 256° West 416 479 36,000  Level Minneapolis Center
10:38AM 40.3172 -98.8714 255° West 416 479 36,000  Level Minneapolis Center
10:39AM 40.2997 -98.9594 255° West 414 476 36,000  Level Denver Center
10:40AM 40.2708 -99.1056 256° West 413 475 36,000  Level Denver Center
10:41AM 40.2408 -99.2539 255° West 418 481 36,000  Level Denver Center
10:42AM 40.2106 -99.4011 255° West 418 481 36,000  Level Denver Center
10:43AM 40.1808 -99.5458 255° West 414 476 36,000  Level Denver Center
10:44AM 40.1506 -99.6908 255° West 412 474 36,000  Level Denver Center
10:45AM 40.1211 -99.8350 255° West 412 474 36,000  Level Denver Center
10:46AM 40.0858 -100.0025 255° West 416 479 36,000  Level Denver Center
10:47AM 40.0567 -100.1425 255° West 417 480 36,000  Level Denver Center
10:48AM 40.0281 -100.2803 255° West 412 474 36,000  Level Denver Center
10:49AM 39.9925 -100.4411 254° West 412 474 36,000  Level Denver Center
10:50AM 39.9631 -100.5811 255° West 416 479 36,000  Level Denver Center
10:51AM 39.9283 -100.7431 254° West 415 478 36,000  Level Denver Center
10:52AM 39.8975 -100.8842 254° West 419 482 36,000  Level Denver Center
10:53AM 39.8675 -101.0228 254° West 416 479 36,000  Level Denver Center
10:54AM 39.8303 -101.1847 253° West 419 482 36,000  Level Denver Center
10:55AM 39.8008 -101.3217 254° West 413 475 36,000  Level Denver Center
10:56AM 39.7658 -101.4806 254° West 405 466 36,000  Level Denver Center
10:57AM 39.7353 -101.6167 254° West 410 472 36,000  Level Denver Center
10:58AM 39.6994 -101.7711 253° West 401 461 36,000  Level Denver Center
10:59AM 39.6697 -101.9061 254° West 405 466 36,000  Level Denver Center
11:00AM 39.6342 -102.0608 253° West 401 461 36,000  Level Denver Center
11:02AM 39.6028 -102.1942 253° West 404 465 36,000  Level Denver Center
11:03AM 39.5722 -102.3306 254° West 410 472 36,000  Level Denver Center
11:04AM 39.5364 -102.4814 253° West 410 472 36,000  Level Denver Center
11:05AM 39.5017 -102.6236 252° West 411 473 36,000  Level Denver Center
11:06AM 39.4694 -102.7661 254° West 411 473 36,000  Level Denver Center
11:07AM 39.4347 -102.9081 252° West 409 471 36,000  Level Denver Center
11:08AM 39.3958 -103.0739 253° West 410 472 36,000  Level Denver Center
11:09AM 39.3614 -103.2158 253° West 411 473 36,000  Level Denver Center
11:10AM 39.3267 -103.3567 252° West 407 468 36,000  Level Denver Center
11:11AM 39.2925 -103.4997 253° West 413 475 36,000  Level Denver Center
11:12AM 39.2578 -103.6419 253° West 412 474 36,000  Level Denver Center
11:13AM 39.2231 -103.7856 253° West 414 476 36,000  Level Denver Center
11:14AM 39.1867 -103.9303 252° West 417 480 36,000  Level Denver Center
11:15AM 39.1503 -104.0750 252° West 419 482 36,000  Level Denver Center
11:16AM 39.1128 -104.2194 252° West 420 483 36,000  Level Denver Center
11:17AM 39.0714 -104.3858 252° West 415 478 36,000  Level Denver Center
11:18AM 39.0344 -104.5319 252° West 424 488 36,000  Level Denver Center
11:19AM 38.9972 -104.6758 252° West 420 483 36,000  Level Denver Center
11:20AM 38.9603 -104.8200 252° West 420 483 36,000  Level Denver Center
11:21AM 38.9222 -104.9653 251° West 422 486 36,000  Level Denver Center
11:22AM 38.8853 -105.1114 252° West 424 488 36,000  Level Denver Center
11:23AM 38.8467 -105.2536 251° West 419 482 36,000  Level Denver Center
11:24AM 38.8083 -105.4000 251° West 426 490 36,000  Level Denver Center
11:25AM 38.7714 -105.5425 252° West 419 482 36,000  Level Denver Center
11:26AM 38.7333 -105.6842 251° West 419 482 36,000  Level Denver Center
11:27AM 38.6883 -105.8517 251° West 421 484 36,000  Level Denver Center
11:28AM 38.6503 -105.9956 251° West 424 488 36,000  Level Denver Center
11:29AM 38.6136 -106.1303 251° West 423 487 36,000  Level Denver Center
11:30AM 38.5714 -106.2808 250° West 425 489 36,000  Level Denver Center
11:31AM 38.5325 -106.4247 251° West 426 490 36,000  Level Denver Center
11:32AM 38.4908 -106.5747 251° West 432 497 36,000  Level Denver Center
11:33AM 38.4514 -106.7153 250° West 431 496 36,000  Level Denver Center
11:35AM 38.4103 -106.8619 250° West 434 499 36,000  Level Denver Center
11:36AM 38.3706 -107.0042 250° West 426 490 36,000  Level Denver Center
11:37AM 38.3294 -107.1492 250° West 432 497 36,000  Level Denver Center
11:38AM 38.2811 -107.3217 250° West 428 493 36,000  Level Denver Center
11:39AM 38.2414 -107.4581 250° West 429 494 36,000  Level Denver Center
11:40AM 38.1889 -107.6408 250° West 430 495 36,000  Level Denver Center
11:41AM 38.1500 -107.7783 250° West 430 495 36,000  Level Denver Center
11:42AM 38.1031 -107.9397 250° West 434 499 36,000  Level Denver Center
11:43AM 38.0642 -108.0719 250° West 433 498 36,000  Level Denver Center
11:44AM 38.0181 -108.2306 250° West 430 495 36,000  Level Denver Center
11:45AM 37.9644 -108.4089 249° West 426 490 36,000  Level Denver Center
11:46AM 37.9256 -108.5428 250° West 425 489 36,000  Level Denver Center
11:47AM 37.8853 -108.6761 249° West 424 488 36,000  Level Denver Center
11:48AM 37.8383 -108.8308 249° West 424 488 36,000  Level Denver Center
11:49AM 37.7994 -108.9653 250° West 425 489 36,000  Level Denver Center
11:50AM 37.7603 -109.1253 253° West 426 490 36,000 -300 Level Denver Center
11:51AM 37.7269 -109.2625 253° West 427 491 35,400 -840 Descending Denver Center
11:52AM 37.6872 -109.4183 252° West 419 482 34,300 -720 Descending Denver Center
11:53AM 37.6536 -109.5569 253° West 429 494 34,000 -180 Descending Denver Center
11:54AM 37.6206 -109.7203 256° West 432 497 34,000  Level Denver Center
11:56AM 37.5903 -109.8597 255° West 432 497 34,000  Level Denver Center
11:57AM 37.5650 -109.9744 254° West 430 495 34,000  Level Denver Center
11:58AM 37.5233 -110.1606 254° West 433 498 34,000  Level Denver Center
11:59AM 37.4831 -110.3447 255° West 429 494 34,000  Level Denver Center
12:00PM 37.4489 -110.4947 254° West 428 493 34,000  Level Denver Center
12:01PM 37.4167 -110.6367 254° West 424 488 34,000  Level Denver Center
12:02PM 37.3844 -110.7764 254° West 418 481 34,000  Level Denver Center
12:03PM 37.3525 -110.9167 254° West 419 482 34,000  Level Denver Center
12:04PM 37.3208 -111.0564 254° West 416 479 34,000  Level Denver Center
12:05PM 37.2883 -111.1967 254° West 418 481 34,000  Level Denver Center
12:06PM 37.2550 -111.3375 253° West 421 484 34,000 -300 Level Denver Center
12:07PM 37.2231 -111.4803 254° West 424 488 33,500 -780 Descending Denver Center
12:08PM 37.1808 -111.6575 253° West 442 509 32,400 -780 Descending Denver Center
12:09PM 37.1481 -111.8050 254° West 440 506 32,000 -240 Descending Denver Center
12:10PM 37.1117 -111.9528 253° West 441 507 32,000 -300 Level Denver Center
12:11PM 37.0756 -112.1008 253° West 443 510 31,400 -900 Descending Denver Center
12:12PM 37.0453 -112.2167 252° West 432 497 30,500 -1,080 Descending Los Angeles Center
12:13PM 37.0114 -112.3550 253° West 418 481 29,500 -960 Descending Los Angeles Center
12:14PM 36.9769 -112.4947 253° West 419 482 28,500 -1,020 Descending Los Angeles Center
12:15PM 36.9428 -112.6328 253° West 416 479 27,500 -1,020 Descending Los Angeles Center
12:16PM 36.9100 -112.7697 253° West 411 473 26,400 -1,080 Descending Los Angeles Center
12:17PM 36.8700 -112.9278 252° West 400 460 25,300 -1,080 Descending Los Angeles Center
12:18PM 36.8381 -113.0569 253° West 392 451 24,200 -660 Descending Los Angeles Center
12:19PM 36.8047 -113.1869 252° West 392 451 24,000 -240 Descending Los Angeles Center
12:20PM 36.7719 -113.3153 252° West 389 448 23,800 -600 Descending Los Angeles Center
12:21PM 36.7322 -113.4414 249° West 390 449 22,800 -900 Descending Los Angeles Center
12:22PM 36.7000 -113.5403 248° West 388 447 22,000 -1,020 Descending Los Angeles Center
12:23PM 36.6533 -113.6889 249° West 384 442 20,800 -1,200 Descending Los Angeles Center
12:24PM 36.6056 -113.8344 248° West 380 437 19,600 -1,080 Descending Los Angeles Center
12:25PM 36.5667 -113.9536 248° West 376 433 18,600 -840 Descending Los Angeles Center
12:26PM 36.5289 -114.0672 248° West 362 417 17,900 -1,260 Descending Los Angeles Center
12:27PM 36.4917 -114.1839 248° West 355 409 16,000 -1,980 Descending Los Angeles Center
12:28PM 36.4650 -114.2844 252° West 354 407 14,400 -1,860 Descending Los Angeles Center
12:28PM 36.4556 -114.2944 220° Southwest 348 400 14,100 -1,980 Descending Los Angeles Center
12:29PM 36.4458 -114.3339 253° West 338 389 13,400 -1,800 Descending Los Angeles Center
12:29PM 36.4192 -114.4017 244° Southwest 340 391 12,300 -1,380 Descending Los Angeles Center
12:30PM 36.3958 -114.4500 239° Southwest 331 381 11,900 -900 Descending Los Angeles Center
12:31PM 36.3517 -114.4678 198° South 331 381 11,400 -1,020 Descending Los Angeles Center
12:31PM 36.3100 -114.4925 206° Southwest 328 377 10,900 -1,080 Descending Los Angeles Center
12:32PM 36.2525 -114.5236 204° Southwest 327 376 10,300 -1,020 Descending Los Angeles Center
12:32PM 36.2397 -114.5458 235° Southwest 315 362 9,900 -1,260 Descending Los Angeles Center
12:33PM 36.1911 -114.5961 220° Southwest 306 352 8,800 -960 Descending Los Angeles Center
12:34PM 36.1172 -114.6781 222° Southwest 300 345 8,000 -900 Descending Los Angeles Center
12:35PM 36.1014 -114.7586 256° West 266 306 7,000 -780 Descending Los Angeles Center
12:36PM 36.0925 -114.8400 262° West 249 287 6,500 -660 Descending Los Angeles Center
12:37PM 36.0844 -114.9122 262° West 232 267 5,700 -1,140 Descending Los Angeles Center
12:38PM 36.0753 -114.9908 262° West 210 242 4,200 -1,440 Descending Los Angeles Center
12:38PM 36.0739 -115.0092 265° West 197 227 3,900 -1,080 Descending Los Angeles Center
12:39PM 36.0725 -115.0522 268° West 177 204 3,200 -780 Descending Los Angeles Center
12:40PM 36.0731 -115.0994 271° West 185 213 2,500 -480 Descending Los Angeles Center
12:41PM 36.0728 -115.1622 270° West 177 204 2,100 -360 Descending Los Angeles Center
12:43PM 36.0667 -115.1500 North  Level FlightAware Approximate